sensor_id;sensor_type;location;lat;lon;timestamp;temperature;humidity
20856;DHT22;63058;49.424;8.420;2023-08-07T00:00:11;16.40;91.70
20856;DHT22;63058;49.424;8.420;2023-08-07T00:02:37;16.40;91.70
20856;DHT22;63058;49.424;8.420;2023-08-07T00:05:04;16.40;91.70
20856;DHT22;63058;49.424;8.420;2023-08-07T00:07:30;16.40;91.70
20856;DHT22;63058;49.424;8.420;2023-08-07T00:09:55;16.40;91.70
20856;DHT22;63058;49.424;8.420;2023-08-07T00:12:21;16.50;91.70
20856;DHT22;63058;49.424;8.420;2023-08-07T00:14:50;16.40;91.70
20856;DHT22;63058;49.424;8.420;2023-08-07T00:17:16;16.40;91.60
20856;DHT22;63058;49.424;8.420;2023-08-07T00:19:42;16.50;91.70
20856;DHT22;63058;49.424;8.420;2023-08-07T00:22:07;16.50;91.80
20856;DHT22;63058;49.424;8.420;2023-08-07T00:24:33;16.50;91.70
20856;DHT22;63058;49.424;8.420;2023-08-07T00:26:59;16.50;91.70
20856;DHT22;63058;49.424;8.420;2023-08-07T00:29:24;16.50;91.70
20856;DHT22;63058;49.424;8.420;2023-08-07T00:31:50;16.50;91.70
20856;DHT22;63058;49.424;8.420;2023-08-07T00:34:16;16.50;91.70
20856;DHT22;63058;49.424;8.420;2023-08-07T00:36:41;16.50;91.70
20856;DHT22;63058;49.424;8.420;2023-08-07T00:39:07;16.50;91.70
20856;DHT22;63058;49.424;8.420;2023-08-07T00:41:34;16.50;91.70
20856;DHT22;63058;49.424;8.420;2023-08-07T00:44:00;16.50;91.50
20856;DHT22;63058;49.424;8.420;2023-08-07T00:46:27;16.60;91.60
20856;DHT22;63058;49.424;8.420;2023-08-07T00:48:53;16.60;91.60
20856;DHT22;63058;49.424;8.420;2023-08-07T00:51:19;16.60;91.70
20856;DHT22;63058;49.424;8.420;2023-08-07T00:53:45;16.60;91.60
20856;DHT22;63058;49.424;8.420;2023-08-07T00:56:12;16.60;91.60
20856;DHT22;63058;49.424;8.420;2023-08-07T00:58:38;16.60;91.70
20856;DHT22;63058;49.424;8.420;2023-08-07T01:01:05;16.60;91.60
20856;DHT22;63058;49.424;8.420;2023-08-07T01:03:31;16.60;91.60
20856;DHT22;63058;49.424;8.420;2023-08-07T01:05:57;16.70;91.60
20856;DHT22;63058;49.424;8.420;2023-08-07T01:08:26;16.60;91.50
20856;DHT22;63058;49.424;8.420;2023-08-07T01:11:10;16.60;91.30
20856;DHT22;63058;49.424;8.420;2023-08-07T01:13:49;16.60;91.10
20856;DHT22;63058;49.424;8.420;2023-08-07T01:19:28;16.70;91.20
20856;DHT22;63058;49.424;8.420;2023-08-07T01:24:37;16.60;91.10
20856;DHT22;63058;49.424;8.420;2023-08-07T01:35:22;16.70;91.40
20856;DHT22;63058;49.424;8.420;2023-08-07T01:37:53;16.60;90.90
20856;DHT22;63058;49.424;8.420;2023-08-07T01:40:21;16.60;90.80
20856;DHT22;63058;49.424;8.420;2023-08-07T01:42:47;16.60;90.80
20856;DHT22;63058;49.424;8.420;2023-08-07T01:45:13;16.60;90.80
20856;DHT22;63058;49.424;8.420;2023-08-07T01:47:39;16.60;90.80
20856;DHT22;63058;49.424;8.420;2023-08-07T01:50:05;16.60;90.80
20856;DHT22;63058;49.424;8.420;2023-08-07T01:52:31;16.60;90.80
20856;DHT22;63058;49.424;8.420;2023-08-07T01:54:57;16.60;90.80
20856;DHT22;63058;49.424;8.420;2023-08-07T01:57:22;16.60;90.80
20856;DHT22;63058;49.424;8.420;2023-08-07T01:59:48;16.60;90.70
20856;DHT22;63058;49.424;8.420;2023-08-07T02:02:14;16.60;90.70
20856;DHT22;63058;49.424;8.420;2023-08-07T02:04:40;16.60;90.60
20856;DHT22;63058;49.424;8.420;2023-08-07T02:07:05;16.70;90.70
20856;DHT22;63058;49.424;8.420;2023-08-07T02:09:31;16.60;90.60
20856;DHT22;63058;49.424;8.420;2023-08-07T02:11:56;16.60;90.60
20856;DHT22;63058;49.424;8.420;2023-08-07T02:14:22;16.60;90.50
20856;DHT22;63058;49.424;8.420;2023-08-07T02:16:48;16.70;90.50
20856;DHT22;63058;49.424;8.420;2023-08-07T02:19:13;16.60;90.50
20856;DHT22;63058;49.424;8.420;2023-08-07T02:21:39;16.70;90.50
20856;DHT22;63058;49.424;8.420;2023-08-07T02:24:04;16.60;90.50
20856;DHT22;63058;49.424;8.420;2023-08-07T02:26:30;16.60;90.50
20856;DHT22;63058;49.424;8.420;2023-08-07T02:28:56;16.60;90.50
20856;DHT22;63058;49.424;8.420;2023-08-07T02:31:21;16.60;90.40
20856;DHT22;63058;49.424;8.420;2023-08-07T02:33:47;16.60;90.40
20856;DHT22;63058;49.424;8.420;2023-08-07T02:36:12;16.60;90.40
20856;DHT22;63058;49.424;8.420;2023-08-07T02:38:38;16.60;90.40
20856;DHT22;63058;49.424;8.420;2023-08-07T02:41:04;16.60;90.40
20856;DHT22;63058;49.424;8.420;2023-08-07T02:43:29;16.60;90.40
20856;DHT22;63058;49.424;8.420;2023-08-07T02:45:58;16.60;90.30
20856;DHT22;63058;49.424;8.420;2023-08-07T02:48:24;16.60;90.40
20856;DHT22;63058;49.424;8.420;2023-08-07T02:50:49;16.60;90.30
20856;DHT22;63058;49.424;8.420;2023-08-07T02:53:17;16.60;90.40
20856;DHT22;63058;49.424;8.420;2023-08-07T02:55:45;16.60;90.40
20856;DHT22;63058;49.424;8.420;2023-08-07T02:58:11;16.50;90.20
20856;DHT22;63058;49.424;8.420;2023-08-07T03:00:37;16.60;90.40
20856;DHT22;63058;49.424;8.420;2023-08-07T03:03:03;16.60;90.40
20856;DHT22;63058;49.424;8.420;2023-08-07T03:05:29;16.60;90.40
20856;DHT22;63058;49.424;8.420;2023-08-07T03:07:55;16.60;90.30
20856;DHT22;63058;49.424;8.420;2023-08-07T03:10:20;16.60;90.20
20856;DHT22;63058;49.424;8.420;2023-08-07T03:12:46;16.60;90.20
20856;DHT22;63058;49.424;8.420;2023-08-07T03:15:12;16.60;90.20
20856;DHT22;63058;49.424;8.420;2023-08-07T03:17:37;16.60;90.20
20856;DHT22;63058;49.424;8.420;2023-08-07T03:20:03;16.60;90.20
20856;DHT22;63058;49.424;8.420;2023-08-07T03:22:29;16.50;90.10
20856;DHT22;63058;49.424;8.420;2023-08-07T03:24:55;16.60;90.10
20856;DHT22;63058;49.424;8.420;2023-08-07T03:27:21;16.60;90.10
20856;DHT22;63058;49.424;8.420;2023-08-07T03:29:47;16.50;90.10
20856;DHT22;63058;49.424;8.420;2023-08-07T03:32:12;16.60;90.20
20856;DHT22;63058;49.424;8.420;2023-08-07T03:34:38;16.60;90.10
20856;DHT22;63058;49.424;8.420;2023-08-07T03:37:04;16.60;90.00
20856;DHT22;63058;49.424;8.420;2023-08-07T03:39:29;16.60;90.10
20856;DHT22;63058;49.424;8.420;2023-08-07T03:41:55;16.60;90.00
20856;DHT22;63058;49.424;8.420;2023-08-07T03:44:20;16.60;90.00
20856;DHT22;63058;49.424;8.420;2023-08-07T03:46:46;16.60;89.80
20856;DHT22;63058;49.424;8.420;2023-08-07T03:49:12;16.50;89.50
20856;DHT22;63058;49.424;8.420;2023-08-07T03:51:37;16.50;89.60
20856;DHT22;63058;49.424;8.420;2023-08-07T03:54:03;16.50;89.60
20856;DHT22;63058;49.424;8.420;2023-08-07T03:56:29;16.40;89.80
20856;DHT22;63058;49.424;8.420;2023-08-07T03:59:04;16.30;90.00
20856;DHT22;63058;49.424;8.420;2023-08-07T04:01:30;16.30;90.00
20856;DHT22;63058;49.424;8.420;2023-08-07T04:03:55;16.20;90.10
20856;DHT22;63058;49.424;8.420;2023-08-07T04:06:21;16.20;90.20
20856;DHT22;63058;49.424;8.420;2023-08-07T04:08:47;16.10;90.30
20856;DHT22;63058;49.424;8.420;2023-08-07T04:11:13;16.10;90.40
20856;DHT22;63058;49.424;8.420;2023-08-07T04:13:39;16.00;90.40
20856;DHT22;63058;49.424;8.420;2023-08-07T04:16:05;16.00;90.50
20856;DHT22;63058;49.424;8.420;2023-08-07T04:18:31;16.00;90.70
20856;DHT22;63058;49.424;8.420;2023-08-07T04:20:57;15.90;90.70
20856;DHT22;63058;49.424;8.420;2023-08-07T04:23:23;15.90;90.90
20856;DHT22;63058;49.424;8.420;2023-08-07T04:25:50;15.90;90.90
20856;DHT22;63058;49.424;8.420;2023-08-07T04:28:16;15.90;90.90
20856;DHT22;63058;49.424;8.420;2023-08-07T04:30:43;15.90;90.90
20856;DHT22;63058;49.424;8.420;2023-08-07T04:33:09;15.90;91.00
20856;DHT22;63058;49.424;8.420;2023-08-07T04:35:34;16.00;91.00
20856;DHT22;63058;49.424;8.420;2023-08-07T04:38:00;15.90;91.00
20856;DHT22;63058;49.424;8.420;2023-08-07T04:40:27;15.90;91.40
20856;DHT22;63058;49.424;8.420;2023-08-07T04:42:53;15.90;91.20
20856;DHT22;63058;49.424;8.420;2023-08-07T04:45:19;15.90;91.30
20856;DHT22;63058;49.424;8.420;2023-08-07T04:47:45;15.90;91.40
20856;DHT22;63058;49.424;8.420;2023-08-07T04:50:11;15.90;91.40
20856;DHT22;63058;49.424;8.420;2023-08-07T04:52:37;15.90;91.40
20856;DHT22;63058;49.424;8.420;2023-08-07T04:55:03;15.90;91.50
20856;DHT22;63058;49.424;8.420;2023-08-07T04:57:29;15.90;91.50
20856;DHT22;63058;49.424;8.420;2023-08-07T04:59:55;16.00;91.50
20856;DHT22;63058;49.424;8.420;2023-08-07T05:02:20;16.00;91.50
20856;DHT22;63058;49.424;8.420;2023-08-07T05:04:46;16.00;91.50
20856;DHT22;63058;49.424;8.420;2023-08-07T05:07:12;16.10;91.60
20856;DHT22;63058;49.424;8.420;2023-08-07T05:09:38;16.10;91.50
20856;DHT22;63058;49.424;8.420;2023-08-07T05:12:05;16.10;91.50
20856;DHT22;63058;49.424;8.420;2023-08-07T05:14:30;16.10;91.60
20856;DHT22;63058;49.424;8.420;2023-08-07T05:16:56;16.20;91.60
20856;DHT22;63058;49.424;8.420;2023-08-07T05:19:22;16.20;91.60
20856;DHT22;63058;49.424;8.420;2023-08-07T05:21:48;16.20;91.60
20856;DHT22;63058;49.424;8.420;2023-08-07T05:24:19;16.20;91.60
20856;DHT22;63058;49.424;8.420;2023-08-07T05:26:45;16.30;91.60
20856;DHT22;63058;49.424;8.420;2023-08-07T05:29:11;16.30;91.60
20856;DHT22;63058;49.424;8.420;2023-08-07T05:31:36;16.30;91.60
20856;DHT22;63058;49.424;8.420;2023-08-07T05:34:02;16.40;91.70
20856;DHT22;63058;49.424;8.420;2023-08-07T05:36:28;16.40;91.70
20856;DHT22;63058;49.424;8.420;2023-08-07T05:38:55;16.40;91.80
20856;DHT22;63058;49.424;8.420;2023-08-07T05:41:21;16.50;91.80
20856;DHT22;63058;49.424;8.420;2023-08-07T05:43:46;16.50;91.80
20856;DHT22;63058;49.424;8.420;2023-08-07T05:46:12;16.60;91.70
20856;DHT22;63058;49.424;8.420;2023-08-07T05:48:38;16.60;91.70
20856;DHT22;63058;49.424;8.420;2023-08-07T05:51:03;16.60;91.60
20856;DHT22;63058;49.424;8.420;2023-08-07T05:53:29;16.60;91.40
20856;DHT22;63058;49.424;8.420;2023-08-07T05:55:55;16.70;91.40
20856;DHT22;63058;49.424;8.420;2023-08-07T05:58:21;16.70;91.20
20856;DHT22;63058;49.424;8.420;2023-08-07T06:00:47;16.70;91.20
20856;DHT22;63058;49.424;8.420;2023-08-07T06:03:12;16.70;91.10
20856;DHT22;63058;49.424;8.420;2023-08-07T06:05:38;16.80;91.20
20856;DHT22;63058;49.424;8.420;2023-08-07T06:08:04;16.90;91.20
20856;DHT22;63058;49.424;8.420;2023-08-07T06:10:30;16.90;91.10
20856;DHT22;63058;49.424;8.420;2023-08-07T06:12:55;16.90;91.00
20856;DHT22;63058;49.424;8.420;2023-08-07T06:15:21;17.00;91.00
20856;DHT22;63058;49.424;8.420;2023-08-07T06:17:47;17.00;90.70
20856;DHT22;63058;49.424;8.420;2023-08-07T06:20:12;17.00;90.60
20856;DHT22;63058;49.424;8.420;2023-08-07T06:22:40;17.00;90.60
20856;DHT22;63058;49.424;8.420;2023-08-07T06:25:06;17.10;90.50
20856;DHT22;63058;49.424;8.420;2023-08-07T06:27:32;17.10;90.50
20856;DHT22;63058;49.424;8.420;2023-08-07T06:29:58;17.10;90.20
20856;DHT22;63058;49.424;8.420;2023-08-07T06:32:25;17.10;90.20
20856;DHT22;63058;49.424;8.420;2023-08-07T06:34:52;17.20;90.20
20856;DHT22;63058;49.424;8.420;2023-08-07T06:37:18;17.10;90.20
20856;DHT22;63058;49.424;8.420;2023-08-07T06:39:43;17.20;90.30
20856;DHT22;63058;49.424;8.420;2023-08-07T06:42:09;17.20;90.30
20856;DHT22;63058;49.424;8.420;2023-08-07T06:44:35;17.30;90.40
20856;DHT22;63058;49.424;8.420;2023-08-07T06:47:00;17.30;90.40
20856;DHT22;63058;49.424;8.420;2023-08-07T06:49:26;17.30;90.00
20856;DHT22;63058;49.424;8.420;2023-08-07T06:51:52;17.40;90.10
20856;DHT22;63058;49.424;8.420;2023-08-07T06:54:18;17.40;90.00
20856;DHT22;63058;49.424;8.420;2023-08-07T06:56:43;17.40;90.10
20856;DHT22;63058;49.424;8.420;2023-08-07T06:59:10;17.40;90.00
20856;DHT22;63058;49.424;8.420;2023-08-07T07:01:35;17.50;90.00
20856;DHT22;63058;49.424;8.420;2023-08-07T07:04:01;17.50;89.70
20856;DHT22;63058;49.424;8.420;2023-08-07T07:06:27;17.50;89.80
20856;DHT22;63058;49.424;8.420;2023-08-07T07:08:53;17.50;89.70
20856;DHT22;63058;49.424;8.420;2023-08-07T07:11:24;17.50;89.20
20856;DHT22;63058;49.424;8.420;2023-08-07T07:13:50;17.40;88.80
20856;DHT22;63058;49.424;8.420;2023-08-07T07:16:20;17.50;89.20
20856;DHT22;63058;49.424;8.420;2023-08-07T07:18:47;17.40;88.80
20856;DHT22;63058;49.424;8.420;2023-08-07T07:21:13;17.40;90.00
20856;DHT22;63058;49.424;8.420;2023-08-07T07:23:39;17.40;89.00
20856;DHT22;63058;49.424;8.420;2023-08-07T07:26:04;17.40;89.10
20856;DHT22;63058;49.424;8.420;2023-08-07T07:28:30;17.30;89.20
20856;DHT22;63058;49.424;8.420;2023-08-07T07:30:56;17.30;89.30
20856;DHT22;63058;49.424;8.420;2023-08-07T07:33:21;17.20;89.30
20856;DHT22;63058;49.424;8.420;2023-08-07T07:35:47;17.20;89.30
20856;DHT22;63058;49.424;8.420;2023-08-07T07:38:13;17.10;89.20
20856;DHT22;63058;49.424;8.420;2023-08-07T07:40:39;17.10;89.20
20856;DHT22;63058;49.424;8.420;2023-08-07T07:43:04;16.90;89.40
20856;DHT22;63058;49.424;8.420;2023-08-07T07:45:30;16.80;89.60
20856;DHT22;63058;49.424;8.420;2023-08-07T07:47:56;16.70;90.00
20856;DHT22;63058;49.424;8.420;2023-08-07T07:50:21;16.60;90.20
20856;DHT22;63058;49.424;8.420;2023-08-07T07:52:47;16.60;90.40
20856;DHT22;63058;49.424;8.420;2023-08-07T07:55:13;16.50;90.70
20856;DHT22;63058;49.424;8.420;2023-08-07T07:57:39;16.50;90.90
20856;DHT22;63058;49.424;8.420;2023-08-07T08:00:06;16.50;91.20
20856;DHT22;63058;49.424;8.420;2023-08-07T08:02:41;16.50;91.20
20856;DHT22;63058;49.424;8.420;2023-08-07T08:05:08;16.60;91.40
20856;DHT22;63058;49.424;8.420;2023-08-07T08:07:37;16.70;91.40
20856;DHT22;63058;49.424;8.420;2023-08-07T08:10:03;16.80;91.40
20856;DHT22;63058;49.424;8.420;2023-08-07T08:12:30;16.90;91.40
20856;DHT22;63058;49.424;8.420;2023-08-07T08:14:56;17.00;91.50
20856;DHT22;63058;49.424;8.420;2023-08-07T08:17:23;17.10;91.40
20856;DHT22;63058;49.424;8.420;2023-08-07T08:19:48;17.20;91.30
20856;DHT22;63058;49.424;8.420;2023-08-07T08:22:14;17.30;91.40
20856;DHT22;63058;49.424;8.420;2023-08-07T08:24:39;17.40;91.20
20856;DHT22;63058;49.424;8.420;2023-08-07T08:27:05;17.50;91.20
20856;DHT22;63058;49.424;8.420;2023-08-07T08:29:31;17.50;91.10
20856;DHT22;63058;49.424;8.420;2023-08-07T08:31:57;17.60;91.00
20856;DHT22;63058;49.424;8.420;2023-08-07T08:34:22;17.70;90.90
20856;DHT22;63058;49.424;8.420;2023-08-07T08:36:48;17.70;90.90
20856;DHT22;63058;49.424;8.420;2023-08-07T08:39:14;17.80;90.80
20856;DHT22;63058;49.424;8.420;2023-08-07T08:41:40;17.80;90.70
20856;DHT22;63058;49.424;8.420;2023-08-07T08:44:09;17.90;90.40
20856;DHT22;63058;49.424;8.420;2023-08-07T08:46:36;17.90;90.20
20856;DHT22;63058;49.424;8.420;2023-08-07T08:49:04;17.90;90.20
20856;DHT22;63058;49.424;8.420;2023-08-07T08:51:31;17.90;90.50
20856;DHT22;63058;49.424;8.420;2023-08-07T08:53:58;18.00;90.50
20856;DHT22;63058;49.424;8.420;2023-08-07T08:56:24;18.00;90.40
20856;DHT22;63058;49.424;8.420;2023-08-07T08:58:50;18.00;90.40
20856;DHT22;63058;49.424;8.420;2023-08-07T09:01:18;18.00;90.40
20856;DHT22;63058;49.424;8.420;2023-08-07T09:03:45;18.00;90.40
20856;DHT22;63058;49.424;8.420;2023-08-07T09:06:11;17.90;90.20
20856;DHT22;63058;49.424;8.420;2023-08-07T09:08:42;17.80;90.10
20856;DHT22;63058;49.424;8.420;2023-08-07T09:11:08;17.80;90.20
20856;DHT22;63058;49.424;8.420;2023-08-07T09:13:37;17.70;90.30
20856;DHT22;63058;49.424;8.420;2023-08-07T09:16:04;17.70;90.30
20856;DHT22;63058;49.424;8.420;2023-08-07T09:18:33;17.60;90.20
20856;DHT22;63058;49.424;8.420;2023-08-07T09:20:59;17.50;90.30
20856;DHT22;63058;49.424;8.420;2023-08-07T09:23:26;17.50;90.60
20856;DHT22;63058;49.424;8.420;2023-08-07T09:26:04;17.40;90.70
20856;DHT22;63058;49.424;8.420;2023-08-07T09:28:31;17.30;90.50
20856;DHT22;63058;49.424;8.420;2023-08-07T09:30:58;17.30;90.70
20856;DHT22;63058;49.424;8.420;2023-08-07T09:33:29;17.20;90.80
20856;DHT22;63058;49.424;8.420;2023-08-07T09:36:00;17.10;91.00
20856;DHT22;63058;49.424;8.420;2023-08-07T09:38:32;17.10;91.20
20856;DHT22;63058;49.424;8.420;2023-08-07T09:41:01;17.00;91.20
20856;DHT22;63058;49.424;8.420;2023-08-07T09:43:29;17.00;91.60
20856;DHT22;63058;49.424;8.420;2023-08-07T09:46:04;17.00;91.70
20856;DHT22;63058;49.424;8.420;2023-08-07T09:48:30;16.90;91.60
20856;DHT22;63058;49.424;8.420;2023-08-07T09:51:01;16.90;92.10
20856;DHT22;63058;49.424;8.420;2023-08-07T09:53:29;16.80;92.40
20856;DHT22;63058;49.424;8.420;2023-08-07T09:55:55;16.80;92.60
20856;DHT22;63058;49.424;8.420;2023-08-07T09:58:20;16.80;92.70
20856;DHT22;63058;49.424;8.420;2023-08-07T10:00:47;16.80;93.20
20856;DHT22;63058;49.424;8.420;2023-08-07T10:03:14;16.70;93.00
20856;DHT22;63058;49.424;8.420;2023-08-07T10:05:41;16.70;93.30
20856;DHT22;63058;49.424;8.420;2023-08-07T10:08:06;16.70;93.60
20856;DHT22;63058;49.424;8.420;2023-08-07T10:10:33;16.70;94.00
20856;DHT22;63058;49.424;8.420;2023-08-07T10:13:01;16.70;94.20
20856;DHT22;63058;49.424;8.420;2023-08-07T10:15:28;16.60;94.50
20856;DHT22;63058;49.424;8.420;2023-08-07T10:17:54;16.60;95.00
20856;DHT22;63058;49.424;8.420;2023-08-07T10:20:21;16.60;95.30
20856;DHT22;63058;49.424;8.420;2023-08-07T10:22:47;16.60;95.30
20856;DHT22;63058;49.424;8.420;2023-08-07T10:25:13;16.60;95.70
20856;DHT22;63058;49.424;8.420;2023-08-07T10:27:40;16.60;96.10
20856;DHT22;63058;49.424;8.420;2023-08-07T10:30:10;16.70;96.40
20856;DHT22;63058;49.424;8.420;2023-08-07T10:32:39;16.70;96.70
20856;DHT22;63058;49.424;8.420;2023-08-07T10:35:05;16.80;96.90
20856;DHT22;63058;49.424;8.420;2023-08-07T10:37:45;16.80;97.00
20856;DHT22;63058;49.424;8.420;2023-08-07T10:40:12;16.80;97.10
20856;DHT22;63058;49.424;8.420;2023-08-07T10:43:11;16.90;97.30
20856;DHT22;63058;49.424;8.420;2023-08-07T10:45:37;16.90;97.00
20856;DHT22;63058;49.424;8.420;2023-08-07T10:50:34;16.90;97.20
20856;DHT22;63058;49.424;8.420;2023-08-07T10:53:03;17.00;97.30
20856;DHT22;63058;49.424;8.420;2023-08-07T10:55:45;17.00;97.70
20856;DHT22;63058;49.424;8.420;2023-08-07T10:58:30;17.00;97.60
20856;DHT22;63058;49.424;8.420;2023-08-07T11:01:16;17.10;98.00
20856;DHT22;63058;49.424;8.420;2023-08-07T11:03:43;17.10;98.10
20856;DHT22;63058;49.424;8.420;2023-08-07T11:06:10;17.10;98.00
20856;DHT22;63058;49.424;8.420;2023-08-07T11:08:36;17.20;97.80
20856;DHT22;63058;49.424;8.420;2023-08-07T11:11:06;17.20;97.50
20856;DHT22;63058;49.424;8.420;2023-08-07T11:13:33;17.20;97.50
20856;DHT22;63058;49.424;8.420;2023-08-07T11:15:59;17.10;98.00
20856;DHT22;63058;49.424;8.420;2023-08-07T11:18:26;17.20;98.60
20856;DHT22;63058;49.424;8.420;2023-08-07T11:20:53;17.20;98.90
20856;DHT22;63058;49.424;8.420;2023-08-07T11:23:26;17.30;99.20
20856;DHT22;63058;49.424;8.420;2023-08-07T11:25:52;17.50;99.30
20856;DHT22;63058;49.424;8.420;2023-08-07T11:28:19;17.50;99.60
20856;DHT22;63058;49.424;8.420;2023-08-07T11:30:50;17.60;99.40
20856;DHT22;63058;49.424;8.420;2023-08-07T11:33:21;17.70;99.30
20856;DHT22;63058;49.424;8.420;2023-08-07T11:35:47;17.70;99.20
20856;DHT22;63058;49.424;8.420;2023-08-07T11:38:36;17.80;99.20
20856;DHT22;63058;49.424;8.420;2023-08-07T11:41:06;17.80;99.10
20856;DHT22;63058;49.424;8.420;2023-08-07T11:43:34;17.80;99.30
20856;DHT22;63058;49.424;8.420;2023-08-07T11:46:07;17.90;99.60
20856;DHT22;63058;49.424;8.420;2023-08-07T11:48:35;18.00;99.80
20856;DHT22;63058;49.424;8.420;2023-08-07T11:51:02;18.00;99.80
20856;DHT22;63058;49.424;8.420;2023-08-07T11:53:31;18.10;99.90
20856;DHT22;63058;49.424;8.420;2023-08-07T11:55:58;18.20;99.90
20856;DHT22;63058;49.424;8.420;2023-08-07T11:58:26;18.30;99.90
20856;DHT22;63058;49.424;8.420;2023-08-07T12:00:52;18.40;99.90
20856;DHT22;63058;49.424;8.420;2023-08-07T12:03:35;18.50;99.90
20856;DHT22;63058;49.424;8.420;2023-08-07T12:06:05;18.60;99.90
20856;DHT22;63058;49.424;8.420;2023-08-07T12:08:32;18.70;99.90
20856;DHT22;63058;49.424;8.420;2023-08-07T12:11:01;18.90;99.90
20856;DHT22;63058;49.424;8.420;2023-08-07T12:13:27;18.90;99.80
20856;DHT22;63058;49.424;8.420;2023-08-07T12:15:57;19.00;99.30
20856;DHT22;63058;49.424;8.420;2023-08-07T12:18:24;19.10;98.40
20856;DHT22;63058;49.424;8.420;2023-08-07T12:20:52;19.10;98.60
20856;DHT22;63058;49.424;8.420;2023-08-07T12:23:21;19.10;98.70
20856;DHT22;63058;49.424;8.420;2023-08-07T12:25:47;19.20;98.70
20856;DHT22;63058;49.424;8.420;2023-08-07T12:28:13;19.20;98.70
20856;DHT22;63058;49.424;8.420;2023-08-07T12:30:39;19.30;98.70
20856;DHT22;63058;49.424;8.420;2023-08-07T12:33:05;19.30;98.70
20856;DHT22;63058;49.424;8.420;2023-08-07T12:35:31;19.40;98.90
20856;DHT22;63058;49.424;8.420;2023-08-07T12:37:57;19.40;99.20
20856;DHT22;63058;49.424;8.420;2023-08-07T12:40:23;19.50;99.20
20856;DHT22;63058;49.424;8.420;2023-08-07T12:42:51;19.60;98.70
20856;DHT22;63058;49.424;8.420;2023-08-07T12:45:17;19.60;98.20
20856;DHT22;63058;49.424;8.420;2023-08-07T12:47:44;19.70;98.30
20856;DHT22;63058;49.424;8.420;2023-08-07T12:50:10;19.70;98.30
20856;DHT22;63058;49.424;8.420;2023-08-07T12:52:36;19.70;98.40
20856;DHT22;63058;49.424;8.420;2023-08-07T12:55:02;19.70;98.10
20856;DHT22;63058;49.424;8.420;2023-08-07T12:57:27;19.80;97.90
20856;DHT22;63058;49.424;8.420;2023-08-07T12:59:53;19.80;98.10
20856;DHT22;63058;49.424;8.420;2023-08-07T13:02:18;19.80;98.60
20856;DHT22;63058;49.424;8.420;2023-08-07T13:04:44;19.90;98.90
20856;DHT22;63058;49.424;8.420;2023-08-07T13:07:11;20.00;98.70
20856;DHT22;63058;49.424;8.420;2023-08-07T13:09:36;20.00;98.50
20856;DHT22;63058;49.424;8.420;2023-08-07T13:12:02;20.00;98.10
20856;DHT22;63058;49.424;8.420;2023-08-07T13:14:28;20.10;98.00
20856;DHT22;63058;49.424;8.420;2023-08-07T13:16:53;20.20;97.70
20856;DHT22;63058;49.424;8.420;2023-08-07T13:19:19;20.20;97.00
20856;DHT22;63058;49.424;8.420;2023-08-07T13:21:45;20.30;97.10
20856;DHT22;63058;49.424;8.420;2023-08-07T13:24:10;20.40;97.00
20856;DHT22;63058;49.424;8.420;2023-08-07T13:26:36;20.50;97.20
20856;DHT22;63058;49.424;8.420;2023-08-07T13:29:03;20.70;97.40
20856;DHT22;63058;49.424;8.420;2023-08-07T13:31:28;20.90;97.30
20856;DHT22;63058;49.424;8.420;2023-08-07T13:33:54;21.10;96.20
20856;DHT22;63058;49.424;8.420;2023-08-07T13:36:20;21.30;95.30
20856;DHT22;63058;49.424;8.420;2023-08-07T13:38:45;21.40;94.70
20856;DHT22;63058;49.424;8.420;2023-08-07T13:41:11;21.40;94.40
20856;DHT22;63058;49.424;8.420;2023-08-07T13:43:37;21.50;93.00
20856;DHT22;63058;49.424;8.420;2023-08-07T13:46:03;21.60;93.10
20856;DHT22;63058;49.424;8.420;2023-08-07T13:48:28;21.90;95.20
20856;DHT22;63058;49.424;8.420;2023-08-07T13:50:54;22.30;96.70
20856;DHT22;63058;49.424;8.420;2023-08-07T13:53:20;22.80;97.60
20856;DHT22;63058;49.424;8.420;2023-08-07T13:55:46;23.30;97.00
20856;DHT22;63058;49.424;8.420;2023-08-07T13:58:12;24.00;94.90
20856;DHT22;63058;49.424;8.420;2023-08-07T14:00:41;24.60;95.10
20856;DHT22;63058;49.424;8.420;2023-08-07T14:03:08;25.20;92.40
20856;DHT22;63058;49.424;8.420;2023-08-07T14:05:34;25.70;91.20
20856;DHT22;63058;49.424;8.420;2023-08-07T14:08:00;26.20;90.20
20856;DHT22;63058;49.424;8.420;2023-08-07T14:10:26;26.80;90.60
20856;DHT22;63058;49.424;8.420;2023-08-07T14:12:51;27.20;83.50
20856;DHT22;63058;49.424;8.420;2023-08-07T14:15:18;27.50;77.00
20856;DHT22;63058;49.424;8.420;2023-08-07T14:17:44;27.50;74.00
20856;DHT22;63058;49.424;8.420;2023-08-07T14:20:10;27.30;70.80
20856;DHT22;63058;49.424;8.420;2023-08-07T14:22:36;26.70;63.00
20856;DHT22;63058;49.424;8.420;2023-08-07T14:25:04;26.40;67.10
20856;DHT22;63058;49.424;8.420;2023-08-07T14:27:30;26.10;69.50
20856;DHT22;63058;49.424;8.420;2023-08-07T14:29:56;25.80;68.20
20856;DHT22;63058;49.424;8.420;2023-08-07T14:32:22;25.60;69.70
20856;DHT22;63058;49.424;8.420;2023-08-07T14:34:48;25.40;71.50
20856;DHT22;63058;49.424;8.420;2023-08-07T14:37:14;25.30;74.60
20856;DHT22;63058;49.424;8.420;2023-08-07T14:39:40;25.40;76.40
20856;DHT22;63058;49.424;8.420;2023-08-07T14:42:06;25.40;74.90
20856;DHT22;63058;49.424;8.420;2023-08-07T14:44:32;25.40;73.80
20856;DHT22;63058;49.424;8.420;2023-08-07T14:46:58;25.30;72.60
20856;DHT22;63058;49.424;8.420;2023-08-07T14:49:24;25.40;76.80
20856;DHT22;63058;49.424;8.420;2023-08-07T14:51:49;25.50;79.30
20856;DHT22;63058;49.424;8.420;2023-08-07T14:54:15;25.70;78.60
20856;DHT22;63058;49.424;8.420;2023-08-07T14:56:41;25.90;78.20
20856;DHT22;63058;49.424;8.420;2023-08-07T14:59:06;26.00;76.90
20856;DHT22;63058;49.424;8.420;2023-08-07T15:01:32;26.20;78.10
20856;DHT22;63058;49.424;8.420;2023-08-07T15:03:58;26.30;77.80
20856;DHT22;63058;49.424;8.420;2023-08-07T15:06:23;26.60;79.20
20856;DHT22;63058;49.424;8.420;2023-08-07T15:08:49;27.00;78.40
20856;DHT22;63058;49.424;8.420;2023-08-07T15:11:16;27.20;77.00
20856;DHT22;63058;49.424;8.420;2023-08-07T15:13:41;27.30;75.40
20856;DHT22;63058;49.424;8.420;2023-08-07T15:16:07;27.20;76.20
20856;DHT22;63058;49.424;8.420;2023-08-07T15:18:33;27.20;73.40
20856;DHT22;63058;49.424;8.420;2023-08-07T15:20:59;27.10;72.30
20856;DHT22;63058;49.424;8.420;2023-08-07T15:23:26;27.00;72.90
20856;DHT22;63058;49.424;8.420;2023-08-07T15:25:52;26.90;74.00
20856;DHT22;63058;49.424;8.420;2023-08-07T15:28:18;26.80;72.60
20856;DHT22;63058;49.424;8.420;2023-08-07T15:30:47;26.90;74.20
20856;DHT22;63058;49.424;8.420;2023-08-07T15:33:14;27.10;72.00
20856;DHT22;63058;49.424;8.420;2023-08-07T15:35:40;27.40;74.80
20856;DHT22;63058;49.424;8.420;2023-08-07T15:38:06;27.70;74.10
20856;DHT22;63058;49.424;8.420;2023-08-07T15:40:32;28.00;71.30
20856;DHT22;63058;49.424;8.420;2023-08-07T15:42:58;28.30;72.80